Time;durP1;ratioP1;P1;durP2;ratioP2;P2;SDS_P1;SDS_P2;PMS_P1;PMS_P2;Temp;Humidity;BMP_temperature;BMP_pressure;BME280_temperature;BME280_humidity;BME280_pressure;Samples;Min_cycle;Max_cycle;Signal;HPM_P1;HPM_P2
2022/01/11 11:47:05;;;;;;;16.02;8.18;;;7.50;99.90;;;;;;5090760;27;20155;-77
2022/01/11 11:49:51;;;;;;;16.17;8.13;;;7.50;99.90;;;;;;5084874;28;20040;-78
2022/01/11 11:52:44;;;;;;;14.40;8.15;;;7.50;99.90;;;;;;5087058;28;20036;-79
2022/01/11 11:55:22;;;;;;;13.27;7.40;;;7.30;99.90;;;;;;5087423;28;20361;-78
2022/01/11 11:57:54;;;;;;;15.13;8.35;;;7.30;99.90;;;;;;5088581;28;20039;-79
2022/01/11 12:00:23;;;;;;;11.90;7.60;;;8.30;99.90;;;;;;5076123;23;20040;-76
2022/01/11 12:02:51;;;;;;;12.85;7.57;;;8.00;99.90;;;;;;5084303;28;20024;-76
2022/01/11 12:05:39;;;;;;;15.50;8.25;;;8.40;99.90;;;;;;5068821;28;20029;-75
2022/01/11 12:08:29;;;;;;;18.30;9.43;;;7.80;99.90;;;;;;5069081;28;20033;-75
2022/01/11 12:10:57;;;;;;;17.00;8.43;;;7.70;99.90;;;;;;5077803;28;20043;-76
2022/01/11 12:13:48;;;;;;;15.77;7.70;;;7.80;99.90;;;;;;5084334;28;20028;-76
2022/01/11 12:16:26;;;;;;;10.68;6.72;;;7.90;99.90;;;;;;5089075;28;20024;-76
2022/01/11 12:18:52;;;;;;;12.63;7.10;;;8.40;99.90;;;;;;5086505;28;20074;-76
2022/01/11 12:21:18;;;;;;;12.65;6.85;;;8.10;99.90;;;;;;5088487;28;20024;-76
2022/01/11 12:23:49;;;;;;;14.18;7.57;;;8.00;99.90;;;;;;5089178;28;20122;-76
2022/01/11 12:26:20;;;;;;;13.05;7.15;;;9.30;99.90;;;;;;5089051;28;20021;-76
2022/01/11 12:29:08;;;;;;;13.82;6.93;;;8.20;99.90;;;;;;5060830;28;20037;-75
2022/01/11 12:31:50;;;;;;;12.60;6.30;;;8.60;99.90;;;;;;5068470;28;20025;-75
2022/01/11 12:34:15;;;;;;;10.45;6.28;;;8.20;99.90;;;;;;5067120;28;20025;-75
2022/01/11 12:37:01;;;;;;;11.10;6.15;;;8.80;99.90;;;;;;5068041;28;20472;-76
2022/01/11 12:39:30;;;;;;;11.05;6.05;;;8.10;99.90;;;;;;5074011;28;20082;-75
2022/01/11 12:41:57;;;;;;;13.55;6.28;;;8.20;99.90;;;;;;5087337;28;20496;-76
2022/01/11 12:47:10;;;;;;;10.23;5.43;;;8.10;99.90;;;;;;5088131;28;20024;-76
2022/01/11 12:49:44;;;;;;;11.63;6.20;;;8.50;99.90;;;;;;5085912;28;20043;-75
2022/01/11 12:52:17;;;;;;;12.63;5.75;;;8.60;99.90;;;;;;5086943;28;20017;-75
2022/01/11 12:54:49;;;;;;;10.55;5.65;;;8.40;99.90;;;;;;5088203;28;20032;-76
2022/01/11 12:57:16;;;;;;;11.50;5.88;;;8.50;99.90;;;;;;5079372;28;20108;-75
2022/01/11 12:59:44;;;;;;;7.90;4.65;;;8.60;99.90;;;;;;5063269;28;20073;-75
2022/01/11 13:02:13;;;;;;;8.10;4.78;;;10.30;99.90;;;;;;5057242;28;20056;-75
2022/01/11 13:04:44;;;;;;;8.55;4.93;;;8.70;99.90;;;;;;5074549;28;20025;-75
2022/01/11 13:07:30;;;;;;;12.02;5.95;;;8.40;99.90;;;;;;5073232;28;20024;-75
2022/01/11 13:10:21;;;;;;;10.02;5.57;;;8.50;99.90;;;;;;5072848;28;20041;-75
2022/01/11 13:12:52;;;;;;;8.15;4.07;;;8.40;99.90;;;;;;5070468;28;20013;-76
2022/01/11 13:15:37;;;;;;;9.45;5.53;;;10.00;99.90;;;;;;5071678;28;20050;-76
2022/01/11 13:18:09;;;;;;;8.10;4.20;;;8.50;99.90;;;;;;5072782;28;20021;-77
2022/01/11 13:20:38;;;;;;;6.45;4.35;;;9.70;99.90;;;;;;5072003;28;20489;-75
2022/01/11 13:23:21;;;;;;;5.93;4.00;;;8.50;99.90;;;;;;5073648;28;20532;-76
2022/01/11 13:25:52;;;;;;;8.25;3.88;;;8.00;99.90;;;;;;5073791;28;20059;-76
2022/01/11 13:28:20;;;;;;;8.10;4.93;;;8.10;99.90;;;;;;5073461;28;20032;-77
2022/01/11 13:30:51;;;;;;;6.53;3.85;;;9.50;99.90;;;;;;5054716;28;20025;-76
2022/01/11 13:33:33;;;;;;;7.28;3.63;;;8.20;99.90;;;;;;5073285;28;20659;-76
2022/01/11 13:36:33;;;;;;;5.80;2.95;;;7.60;99.90;;;;;;5073331;28;20025;-76
2022/01/11 13:39:13;;;;;;;4.97;3.22;;;7.60;99.90;;;;;;5065430;28;20081;-76
2022/01/11 13:41:45;;;;;;;5.68;3.47;;;7.60;99.90;;;;;;5071496;28;20032;-77
2022/01/11 13:44:25;;;;;;;7.28;4.38;;;7.80;99.90;;;;;;5073397;28;20028;-77
2022/01/11 13:46:54;;;;;;;8.18;3.95;;;7.60;99.90;;;;;;5071949;28;20500;-75
2022/01/11 13:49:21;;;;;;;7.63;3.85;;;8.90;99.90;;;;;;5072169;28;20056;-76
2022/01/11 13:51:50;;;;;;;7.18;4.18;;;8.60;99.90;;;;;;5072710;28;20071;-76
2022/01/11 13:54:17;;;;;;;6.78;3.70;;;7.30;99.90;;;;;;5073194;28;20021;-75
2022/01/11 13:56:45;;;;;;;6.13;3.08;;;7.30;99.90;;;;;;5071890;28;20435;-75
2022/01/11 13:59:13;;;;;;;7.90;3.15;;;7.70;99.90;;;;;;5071204;28;20021;-76
2022/01/11 14:01:41;;;;;;;6.78;3.78;;;7.10;99.90;;;;;;5072525;28;20066;-76
2022/01/11 14:04:17;;;;;;;6.90;3.78;;;7.00;99.90;;;;;;5071897;28;20415;-76
2022/01/11 14:06:49;;;;;;;5.78;2.90;;;7.00;99.90;;;;;;5072663;28;20139;-76
2022/01/11 14:09:30;;;;;;;5.50;2.75;;;8.10;99.90;;;;;;5071026;28;20025;-76
2022/01/11 14:12:09;;;;;;;4.28;2.83;;;6.80;99.90;;;;;;5072955;28;20078;-76
2022/01/11 14:14:36;;;;;;;5.75;2.97;;;6.80;99.90;;;;;;5072682;28;20476;-76
2022/01/11 14:17:16;;;;;;;5.18;3.55;;;6.80;99.90;;;;;;5072737;28;20068;-76
2022/01/11 14:19:49;;;;;;;6.68;3.38;;;6.60;99.90;;;;;;5071835;28;20393;-76
2022/01/11 14:22:16;;;;;;;5.97;3.00;;;7.60;99.90;;;;;;5072136;28;20017;-76
2022/01/11 14:24:58;;;;;;;6.82;4.10;;;7.60;99.90;;;;;;5071104;28;20028;-76
2022/01/11 14:27:32;;;;;;;4.60;3.47;;;6.70;99.90;;;;;;5072336;28;20027;-76
2022/01/11 14:30:07;;;;;;;5.45;3.40;;;6.70;99.90;;;;;;5064946;28;20552;-76
2022/01/11 14:32:44;;;;;;;6.03;3.40;;;6.60;99.90;;;;;;5072044;28;20100;-76
2022/01/11 14:35:10;;;;;;;5.78;3.40;;;6.60;99.90;;;;;;5071769;28;20026;-76
2022/01/11 14:37:36;;;;;;;6.68;3.67;;;7.20;99.90;;;;;;5071871;28;20024;-76
2022/01/11 14:40:21;;;;;;;4.93;3.70;;;7.30;99.90;;;;;;5070802;28;20120;-76
2022/01/11 14:42:47;;;;;;;6.45;3.58;;;6.30;99.90;;;;;;5072136;28;20580;-76
2022/01/11 14:45:36;;;;;;;6.88;4.22;;;6.30;99.90;;;;;;5070247;28;20029;-76
2022/01/11 14:48:02;;;;;;;7.03;3.90;;;6.30;99.90;;;;;;5072252;28;20074;-75
2022/01/11 14:50:30;;;;;;;6.47;3.90;;;6.30;99.90;;;;;;5069373;28;20028;-74
2022/01/11 14:53:13;;;;;;;6.43;4.22;;;6.80;99.90;;;;;;5071778;28;20058;-75
2022/01/11 14:55:50;;;;;;;;;;;6.40;99.90;;;;;;5073428;28;20033;-77
2022/01/11 14:58:18;;;;;;;7.97;5.00;;;6.50;99.90;;;;;;5073112;28;19962;-77
2022/01/11 15:00:50;;;;;;;6.68;3.85;;;6.30;99.90;;;;;;5070034;28;20045;-77
2022/01/11 15:03:27;;;;;;;4.30;3.00;;;6.50;99.90;;;;;;5055079;28;20071;-77
2022/01/11 15:06:04;;;;;;;5.68;3.40;;;6.20;99.90;;;;;;5071827;28;20055;-77
2022/01/11 15:08:31;;;;;;;5.95;3.33;;;6.70;99.90;;;;;;5073209;28;20070;-77
2022/01/11 15:11:14;;;;;;;5.43;3.20;;;6.00;99.90;;;;;;5070965;28;20043;-78
2022/01/11 15:13:42;;;;;;;5.53;3.60;;;6.10;99.90;;;;;;5050881;28;20480;-77
2022/01/11 15:16:10;;;;;;;6.05;3.53;;;6.30;99.90;;;;;;5054050;28;20036;-77
2022/01/11 15:18:37;;;;;;;6.82;4.53;;;7.20;99.90;;;;;;5070260;28;20025;-77
2022/01/11 15:21:04;;;;;;;9.38;5.38;;;5.90;99.90;;;;;;5052956;28;20401;-77
2022/01/11 15:23:30;;;;;;;9.10;6.00;;;6.80;99.90;;;;;;5073605;28;20031;-77
2022/01/11 15:25:56;;;;;;;9.15;5.28;;;5.90;99.90;;;;;;5061127;28;20037;-77
2022/01/11 15:28:21;;;;;;;7.28;4.60;;;5.70;99.90;;;;;;5050044;28;20031;-77
2022/01/11 15:30:47;;;;;;;7.22;4.45;;;5.80;99.90;;;;;;5065556;28;20114;-77
2022/01/11 15:33:12;;;;;;;7.55;3.75;;;7.70;99.90;;;;;;5071166;28;20025;-77
2022/01/11 15:35:38;;;;;;;8.45;4.20;;;6.80;99.90;;;;;;5072598;28;20496;-77
2022/01/11 15:38:04;;;;;;;5.90;3.83;;;5.70;99.90;;;;;;5071218;28;20440;-77
2022/01/11 15:40:29;;;;;;;11.95;6.18;;;7.40;99.90;;;;;;5071591;28;20064;-77
2022/01/11 15:42:55;;;;;;;10.95;4.32;;;5.80;99.90;;;;;;5072581;28;20029;-77
2022/01/11 15:45:21;;;;;;;7.50;3.60;;;5.70;99.90;;;;;;5070604;28;20058;-77
2022/01/11 15:47:46;;;;;;;10.90;5.07;;;6.10;99.90;;;;;;5071615;28;20373;-77
2022/01/11 15:50:12;;;;;;;9.65;4.57;;;5.70;99.90;;;;;;5070952;28;20051;-77
2022/01/11 15:52:37;;;;;;;11.95;4.30;;;5.50;99.90;;;;;;5053538;28;20028;-77
2022/01/11 15:55:04;;;;;;;6.82;3.97;;;5.30;99.90;;;;;;5072012;28;20032;-77
2022/01/11 15:57:29;;;;;;;5.63;3.58;;;5.50;99.90;;;;;;5070568;28;20048;-77
2022/01/11 15:59:55;;;;;;;7.80;5.10;;;5.50;99.90;;;;;;5066321;28;20496;-77
2022/01/11 16:02:23;;;;;;;6.68;3.70;;;6.50;99.90;;;;;;5070395;28;20150;-77
2022/01/11 16:04:49;;;;;;;9.70;3.85;;;5.50;99.90;;;;;;5053652;28;20039;-77
2022/01/11 16:07:14;;;;;;;6.70;3.97;;;5.40;99.90;;;;;;5067182;28;20029;-78
2022/01/11 16:09:40;;;;;;;8.60;3.83;;;5.60;99.90;;;;;;5061816;28;20028;-78
2022/01/11 16:12:06;;;;;;;6.70;3.53;;;5.40;99.90;;;;;;5073268;28;20396;-78
2022/01/11 16:14:35;;;;;;;6.07;3.70;;;5.30;99.90;;;;;;5073166;28;20085;-77
2022/01/11 16:17:02;;;;;;;7.15;4.10;;;5.40;99.90;;;;;;5072449;28;20020;-78
2022/01/11 16:19:28;;;;;;;6.40;4.03;;;5.20;99.90;;;;;;5073310;28;20060;-76
2022/01/11 16:21:54;;;;;;;9.48;5.45;;;5.30;99.90;;;;;;5072654;28;20033;-77
2022/01/11 16:24:19;;;;;;;11.25;7.38;;;5.20;99.90;;;;;;5079893;28;20396;-75
2022/01/11 16:26:45;;;;;;;15.65;10.32;;;5.20;99.90;;;;;;5059210;28;20111;-78
2022/01/11 16:29:11;;;;;;;7.88;5.35;;;5.20;99.90;;;;;;5071945;28;20107;-79
2022/01/11 16:31:38;;;;;;;8.07;4.55;;;5.20;99.90;;;;;;5074070;28;20524;-76
2022/01/11 16:34:04;;;;;;;5.82;4.05;;;5.20;99.90;;;;;;5077503;28;20024;-77
2022/01/11 16:36:30;;;;;;;5.88;3.85;;;5.20;99.90;;;;;;5078305;28;20445;-76
2022/01/11 16:38:59;;;;;;;5.60;3.95;;;5.30;99.90;;;;;;5086696;28;20024;-77
2022/01/11 16:44:10;;;;;;;16.30;9.90;;;5.20;99.90;;;;;;5079335;28;20389;-78
2022/01/11 16:46:39;;;;;;;9.18;5.72;;;5.30;99.90;;;;;;5098533;28;20033;-76
2022/01/11 16:49:07;;;;;;;8.13;4.78;;;5.10;99.90;;;;;;5099321;28;20084;-77
2022/01/11 16:51:32;;;;;;;8.18;4.53;;;5.10;99.90;;;;;;5086916;28;20055;-77
2022/01/11 16:53:58;;;;;;;5.90;4.00;;;5.30;99.90;;;;;;5078357;28;20477;-78
2022/01/11 16:56:25;;;;;;;5.80;3.78;;;5.10;99.90;;;;;;5058047;28;20062;-74
2022/01/11 16:58:50;;;;;;;8.00;4.30;;;5.00;99.90;;;;;;5074560;28;20025;-77
2022/01/11 17:01:16;;;;;;;6.30;4.03;;;5.30;99.90;;;;;;5076108;28;20378;-79
2022/01/11 17:03:42;;;;;;;7.15;4.05;;;5.10;99.90;;;;;;5075293;28;20020;-80
2022/01/11 17:06:07;;;;;;;7.72;3.90;;;5.10;99.90;;;;;;5079740;28;20032;-78
2022/01/11 17:08:33;;;;;;;6.53;3.75;;;5.10;99.90;;;;;;5079789;28;20107;-78
2022/01/11 17:10:59;;;;;;;6.30;4.20;;;5.30;99.90;;;;;;5079736;28;20048;-78
2022/01/11 17:13:24;;;;;;;6.78;4.38;;;5.00;99.90;;;;;;5082547;28;20036;-79
2022/01/11 17:15:50;;;;;;;6.10;3.80;;;7.00;99.90;;;;;;5083381;28;20024;-78
2022/01/11 17:18:16;;;;;;;5.00;3.72;;;6.80;99.90;;;;;;5082376;28;20029;-77
2022/01/11 17:20:41;;;;;;;7.90;3.30;;;4.90;99.90;;;;;;5064105;28;20040;-78
2022/01/11 17:23:07;;;;;;;6.00;3.42;;;5.80;99.90;;;;;;5078748;28;20080;-79
2022/01/11 17:25:33;;;;;;;5.80;3.45;;;4.90;99.90;;;;;;5060673;28;20036;-80
2022/01/11 17:27:59;;;;;;;5.47;3.35;;;5.80;99.90;;;;;;5063478;28;20052;-78
2022/01/11 17:30:24;;;;;;;6.55;4.00;;;5.60;99.90;;;;;;5087511;28;20024;-78
2022/01/11 17:32:55;;;;;;;7.72;3.88;;;4.80;99.90;;;;;;5082117;28;20024;-79
2022/01/11 17:35:21;;;;;;;8.02;4.53;;;4.80;99.90;;;;;;5077073;28;20085;-79
2022/01/11 17:37:47;;;;;;;6.32;4.18;;;5.50;99.90;;;;;;5078351;28;20028;-79
2022/01/11 17:40:18;;;;;;;7.72;4.75;;;4.90;99.90;;;;;;5077156;28;20029;-79
2022/01/11 17:42:45;;;;;;;5.47;4.00;;;6.00;99.90;;;;;;5078030;28;20024;-79
2022/01/11 17:45:12;;;;;;;6.75;4.00;;;5.60;99.90;;;;;;5077146;28;20078;-78
2022/01/11 17:47:37;;;;;;;7.35;4.05;;;4.60;99.90;;;;;;5079420;28;20020;-78
2022/01/11 17:50:05;;;;;;;6.47;3.70;;;4.60;99.90;;;;;;5077051;28;20032;-78
2022/01/11 17:52:31;;;;;;;7.95;3.78;;;4.50;99.90;;;;;;5077480;28;20480;-78
2022/01/11 17:54:57;;;;;;;6.47;4.65;;;4.60;99.90;;;;;;5076998;28;20111;-78
2022/01/11 17:57:23;;;;;;;5.95;3.58;;;4.70;99.90;;;;;;5075058;28;20029;-77
2022/01/11 17:59:49;;;;;;;6.65;4.72;;;4.90;99.90;;;;;;5072442;28;20060;-77
2022/01/11 18:02:16;;;;;;;6.28;4.05;;;6.70;99.90;;;;;;5073636;28;20110;-77
2022/01/11 18:04:42;;;;;;;7.93;4.82;;;4.70;99.90;;;;;;5073510;28;20116;-77
2022/01/11 18:07:08;;;;;;;6.90;4.05;;;4.70;99.90;;;;;;5074884;28;20095;-77
2022/01/11 18:09:33;;;;;;;7.32;4.13;;;4.60;99.90;;;;;;5073194;28;20024;-78
2022/01/11 18:11:59;;;;;;;8.45;5.03;;;4.50;99.90;;;;;;5073522;28;20484;-77
2022/01/11 18:14:26;;;;;;;6.63;4.20;;;4.60;99.90;;;;;;5073365;28;20021;-77
2022/01/11 18:16:52;;;;;;;8.15;4.80;;;4.60;99.90;;;;;;5073442;28;20028;-77
2022/01/11 18:19:19;;;;;;;5.22;3.72;;;4.50;99.90;;;;;;5072159;28;20491;-77
2022/01/11 18:21:46;;;;;;;6.35;4.15;;;4.50;99.90;;;;;;5074144;28;20036;-77
2022/01/11 18:24:12;;;;;;;7.40;4.78;;;4.50;99.90;;;;;;5074621;28;20087;-78
2022/01/11 18:26:38;;;;;;;9.50;5.53;;;4.50;99.90;;;;;;5075105;28;20547;-77
2022/01/11 18:29:03;;;;;;;6.78;4.38;;;4.60;99.90;;;;;;5073320;28;20037;-77
2022/01/11 18:31:34;;;;;;;7.75;4.82;;;4.40;99.90;;;;;;5066996;28;20047;-78
2022/01/11 18:33:59;;;;;;;7.95;5.15;;;4.40;99.90;;;;;;5074387;28;20499;-78
2022/01/11 18:36:25;;;;;;;6.97;4.65;;;4.40;99.90;;;;;;5076863;28;20071;-78
2022/01/11 18:38:51;;;;;;;7.88;5.13;;;4.40;99.90;;;;;;5075000;28;20024;-77
2022/01/11 18:41:16;;;;;;;7.35;5.32;;;4.20;99.90;;;;;;5073601;28;20032;-77
2022/01/11 18:43:42;;;;;;;7.82;5.70;;;4.30;99.90;;;;;;5074493;28;20032;-79
2022/01/11 18:46:08;;;;;;;12.13;6.78;;;4.30;99.90;;;;;;5078781;28;20032;-78
2022/01/11 18:48:34;;;;;;;10.07;5.85;;;4.40;99.90;;;;;;5077365;28;20032;-77
2022/01/11 18:51:02;;;;;;;10.13;6.25;;;4.40;99.90;;;;;;5074306;28;20095;-77
2022/01/11 18:53:29;;;;;;;10.15;5.97;;;6.10;99.90;;;;;;5075911;28;20116;-78
2022/01/11 18:55:56;;;;;;;12.02;7.00;;;4.60;99.90;;;;;;5077254;28;20025;-78
2022/01/11 18:58:23;;;;;;;15.90;8.45;;;4.40;99.90;;;;;;5062081;28;20123;-80
2022/01/11 19:00:48;;;;;;;10.95;6.93;;;4.30;99.90;;;;;;5076354;28;20059;-78
2022/01/11 19:03:14;;;;;;;8.68;5.25;;;4.50;99.90;;;;;;5077053;28;20602;-78
2022/01/11 19:05:40;;;;;;;9.98;6.28;;;4.60;99.90;;;;;;5075138;28;20028;-77
2022/01/11 19:08:07;;;;;;;8.68;5.68;;;6.40;99.90;;;;;;5074071;28;20028;-78
2022/01/11 19:10:33;;;;;;;9.88;5.93;;;4.30;99.90;;;;;;5073368;28;20040;-78
2022/01/11 19:12:59;;;;;;;9.90;6.00;;;4.40;99.90;;;;;;5074293;28;20033;-78
2022/01/11 19:15:26;;;;;;;9.88;6.40;;;5.40;99.90;;;;;;5080404;28;20160;-79
2022/01/11 19:17:52;;;;;;;8.50;5.88;;;4.30;99.90;;;;;;5078706;28;20043;-77
2022/01/11 19:20:18;;;;;;;9.77;6.22;;;4.30;99.90;;;;;;5076755;28;20035;-78
2022/01/11 19:22:43;;;;;;;9.57;6.20;;;4.40;99.90;;;;;;5075108;28;20024;-78
2022/01/11 19:25:10;;;;;;;9.07;6.32;;;5.60;99.90;;;;;;5065012;28;20582;-79
2022/01/11 19:27:37;;;;;;;9.82;6.28;;;4.40;99.90;;;;;;5081136;28;20030;-78
2022/01/11 19:30:06;;;;;;;9.10;5.75;;;4.30;99.90;;;;;;5077546;28;20431;-78
2022/01/11 19:32:32;;;;;;;8.60;6.10;;;4.30;99.90;;;;;;5075268;28;20023;-78
2022/01/11 19:34:58;;;;;;;10.25;6.07;;;4.30;99.90;;;;;;5076392;28;20021;-78
2022/01/11 19:37:26;;;;;;;7.97;5.50;;;4.30;99.90;;;;;;5075398;28;20016;-78
2022/01/11 19:39:53;;;;;;;8.18;5.25;;;4.30;99.90;;;;;;5075290;28;20419;-78
2022/01/11 19:42:26;;;;;;;7.32;4.93;;;4.40;99.90;;;;;;5058461;28;20047;-78
2022/01/11 19:44:53;;;;;;;7.45;5.15;;;4.30;99.90;;;;;;5075242;28;20029;-78
2022/01/11 19:47:19;;;;;;;9.40;6.25;;;5.30;99.90;;;;;;5077393;28;20025;-79
2022/01/11 19:49:46;;;;;;;9.32;5.40;;;4.30;99.90;;;;;;5070781;28;20053;-79
2022/01/11 19:52:13;;;;;;;8.18;5.45;;;4.50;99.90;;;;;;5059389;28;20044;-78
2022/01/11 19:54:40;;;;;;;8.75;5.70;;;5.00;99.90;;;;;;5065140;28;20040;-79
2022/01/11 19:57:05;;;;;;;8.27;5.28;;;4.20;99.90;;;;;;5056270;28;20021;-79
2022/01/11 19:59:31;;;;;;;7.22;4.65;;;4.70;99.90;;;;;;5058546;28;20056;-79
2022/01/11 20:01:57;;;;;;;7.68;5.30;;;4.20;99.90;;;;;;5070079;28;20146;-78
2022/01/11 20:04:22;;;;;;;7.72;4.78;;;4.10;99.90;;;;;;5064593;28;20055;-79
2022/01/11 20:06:48;;;;;;;6.38;4.50;;;4.20;99.90;;;;;;5062671;28;20029;-79
2022/01/11 20:09:14;;;;;;;7.43;4.95;;;4.10;99.90;;;;;;5058537;28;20029;-79
2022/01/11 20:11:42;;;;;;;8.18;4.88;;;4.20;99.90;;;;;;5078985;28;20124;-79
2022/01/11 20:14:10;;;;;;;7.45;4.63;;;5.10;99.90;;;;;;5079517;28;20021;-78
2022/01/11 20:16:37;;;;;;;9.70;5.18;;;6.00;99.90;;;;;;5079839;28;20031;-78
2022/01/11 20:19:03;;;;;;;8.63;5.60;;;4.00;99.90;;;;;;5071312;28;20063;-79
2022/01/11 20:21:36;;;;;;;10.20;5.97;;;4.10;99.90;;;;;;5079745;28;20550;-79
2022/01/11 20:29:30;;;;;;;9.02;5.97;;;4.20;99.90;;;;;;5090464;28;20047;-79
2022/01/11 20:31:56;;;;;;;9.45;5.93;;;4.10;99.90;;;;;;5080279;28;20032;-79
2022/01/11 20:34:23;;;;;;;8.05;5.53;;;4.10;99.90;;;;;;5061910;28;20078;-79
2022/01/11 20:36:48;;;;;;;8.35;5.13;;;4.00;99.90;;;;;;5079403;28;20024;-79
2022/01/11 20:39:15;;;;;;;7.60;5.15;;;4.10;99.90;;;;;;5073809;28;20112;-78
2022/01/11 20:41:44;;;;;;;11.43;6.82;;;6.20;99.90;;;;;;5056511;28;20044;-78
2022/01/11 20:44:12;;;;;;;7.88;5.70;;;4.10;99.90;;;;;;5061991;28;20036;-79
2022/01/11 20:46:37;;;;;;;9.77;6.32;;;4.20;99.90;;;;;;5058492;28;20112;-79
2022/01/11 20:49:03;;;;;;;9.55;6.18;;;4.70;99.90;;;;;;5077264;28;20048;-79
2022/01/11 20:51:30;;;;;;;8.13;5.05;;;4.00;99.90;;;;;;5079094;28;20032;-79
2022/01/11 20:53:56;;;;;;;8.18;4.82;;;4.10;99.90;;;;;;5061527;28;20549;-79
2022/01/11 20:56:24;;;;;;;8.00;5.57;;;4.00;99.90;;;;;;5079618;28;20055;-79
2022/01/11 20:58:50;;;;;;;9.20;5.30;;;4.10;99.90;;;;;;5078185;28;20035;-79
2022/01/11 21:01:17;;;;;;;7.05;4.85;;;3.90;99.90;;;;;;5078474;28;20496;-79
2022/01/11 21:03:46;;;;;;;7.60;5.03;;;5.30;99.90;;;;;;5078100;28;20036;-79
2022/01/11 21:06:12;;;;;;;8.77;5.53;;;4.10;99.90;;;;;;5079067;28;20020;-79
2022/01/11 21:08:39;;;;;;;8.57;5.95;;;4.00;99.90;;;;;;5076803;28;20021;-79
2022/01/11 21:11:04;;;;;;;8.93;6.00;;;4.10;99.90;;;;;;5076574;28;20031;-79
2022/01/11 21:13:32;;;;;;;10.57;6.00;;;4.00;99.90;;;;;;5079035;28;20099;-79
2022/01/11 21:16:16;;;;;;;8.25;5.50;;;4.00;99.90;;;;;;5079508;28;20118;-79
2022/01/11 21:21:26;;;;;;;8.50;5.22;;;4.60;99.90;;;;;;5078952;28;20446;-79
2022/01/11 21:23:53;;;;;;;12.95;6.70;;;4.00;99.90;;;;;;5079453;28;20036;-79
2022/01/11 21:26:19;;;;;;;10.90;6.82;;;4.00;99.90;;;;;;5078740;28;20029;-79
2022/01/11 21:28:47;;;;;;;9.77;6.25;;;3.90;99.90;;;;;;5077228;28;20039;-79
2022/01/11 21:31:14;;;;;;;10.98;6.63;;;4.00;99.90;;;;;;5081387;28;20024;-79
2022/01/11 21:33:42;;;;;;;12.07;6.80;;;3.70;99.90;;;;;;5081099;28;20484;-79
2022/01/11 21:36:08;;;;;;;9.38;6.53;;;3.80;99.90;;;;;;5081711;28;20032;-78
2022/01/11 21:38:33;;;;;;;9.98;6.00;;;3.70;99.90;;;;;;5084166;28;20040;-78
2022/01/11 21:40:59;;;;;;;8.25;5.80;;;4.60;99.90;;;;;;5095062;28;20025;-78
2022/01/11 21:43:26;;;;;;;7.28;5.00;;;5.70;99.90;;;;;;5094078;28;20028;-78
2022/01/11 21:45:52;;;;;;;6.88;4.80;;;3.90;99.90;;;;;;5094988;28;20031;-78
2022/01/11 21:48:18;;;;;;;8.60;5.10;;;3.70;99.90;;;;;;5095653;28;20029;-78
2022/01/11 21:50:43;;;;;;;8.02;4.85;;;3.60;99.90;;;;;;5089064;28;20028;-79
2022/01/11 21:53:09;;;;;;;9.02;5.55;;;4.80;99.90;;;;;;5080732;28;20058;-79
2022/01/11 21:55:37;;;;;;;10.30;5.22;;;3.60;99.90;;;;;;5078751;28;20480;-79
2022/01/11 21:58:05;;;;;;;7.47;5.25;;;5.20;99.90;;;;;;5080028;28;20040;-78
2022/01/11 22:00:35;;;;;;;10.77;6.18;;;3.30;99.90;;;;;;5078358;28;20123;-79
2022/01/11 22:03:02;;;;;;;10.93;5.50;;;3.10;99.90;;;;;;5079249;28;20025;-78
2022/01/11 22:05:32;;;;;;;8.82;5.30;;;3.20;99.90;;;;;;5080405;28;20056;-79
2022/01/11 22:07:58;;;;;;;8.75;6.05;;;3.00;99.90;;;;;;5081037;28;20031;-78
2022/01/11 22:10:32;;;;;;;7.97;5.55;;;3.10;99.90;;;;;;5078195;28;20074;-78
2022/01/11 22:12:58;;;;;;;9.35;6.10;;;2.90;99.90;;;;;;5079315;28;20031;-79
2022/01/11 22:18:03;;;;;;;7.68;5.18;;;2.90;99.90;;;;;;5079686;28;20032;-79
2022/01/11 22:20:30;;;;;;;8.75;5.90;;;2.80;99.90;;;;;;5077435;28;20051;-79
2022/01/11 22:22:57;;;;;;;10.00;6.03;;;2.80;99.90;;;;;;5079367;28;20396;-79
2022/01/11 22:25:24;;;;;;;9.75;5.63;;;2.80;99.90;;;;;;5077935;28;20033;-79
2022/01/11 22:27:50;;;;;;;9.60;6.32;;;3.00;99.90;;;;;;5079263;28;20017;-79
2022/01/11 22:30:16;;;;;;;12.40;7.25;;;2.50;99.90;;;;;;5075576;28;20050;-79
2022/01/11 22:32:42;;;;;;;11.68;7.63;;;2.60;99.90;;;;;;5079850;28;20051;-79
2022/01/11 22:35:08;;;;;;;14.60;9.13;;;1.90;99.90;;;;;;5079118;28;20037;-79
2022/01/11 22:37:38;;;;;;;14.60;8.70;;;2.00;99.90;;;;;;5078974;28;20485;-79
2022/01/11 22:40:06;;;;;;;13.10;7.68;;;1.70;99.90;;;;;;5076500;28;20024;-78
2022/01/11 22:42:32;;;;;;;12.90;8.35;;;1.60;99.90;;;;;;5078664;28;20390;-78
2022/01/11 22:44:58;;;;;;;14.45;7.57;;;1.50;99.90;;;;;;5078422;28;20040;-79
2022/01/11 22:47:23;;;;;;;12.05;8.02;;;1.60;99.90;;;;;;5080390;28;20016;-79
2022/01/11 22:49:49;;;;;;;14.63;9.23;;;1.60;99.90;;;;;;5079055;28;20119;-78
2022/01/11 22:52:16;;;;;;;13.82;8.25;;;1.50;99.90;;;;;;5080099;28;20050;-79
2022/01/11 22:54:43;;;;;;;12.75;8.40;;;1.80;99.90;;;;;;5080985;28;20438;-78
2022/01/11 22:57:09;;;;;;;11.77;8.45;;;1.50;99.90;;;;;;5081680;28;20028;-78
2022/01/11 22:59:36;;;;;;;13.52;7.95;;;1.60;99.90;;;;;;5080985;28;20025;-78
2022/01/11 23:02:02;;;;;;;11.68;7.53;;;1.60;99.90;;;;;;5084926;28;20086;-78
2022/01/11 23:04:28;;;;;;;11.60;7.60;;;1.40;99.90;;;;;;5086485;28;20021;-78
2022/01/11 23:06:55;;;;;;;13.75;8.30;;;1.40;99.90;;;;;;5084076;28;20029;-79
2022/01/11 23:09:21;;;;;;;14.75;8.35;;;1.10;99.90;;;;;;5064089;28;20594;-78
2022/01/11 23:11:51;;;;;;;13.88;8.50;;;1.00;99.90;;;;;;5080516;28;20016;-78
2022/01/11 23:17:07;;;;;;;13.25;8.73;;;0.70;99.90;;;;;;5081026;28;20035;-79
2022/01/11 23:19:33;;;;;;;14.45;9.90;;;0.70;99.90;;;;;;5085833;28;20032;-78
2022/01/11 23:22:03;;;;;;;15.68;9.45;;;0.40;99.90;;;;;;5083620;28;20025;-79
2022/01/11 23:24:29;;;;;;;17.48;11.23;;;0.40;99.90;;;;;;5078767;28;20086;-79
2022/01/11 23:26:55;;;;;;;17.45;11.93;;;0.40;99.90;;;;;;5079953;28;20028;-78
2022/01/11 23:29:21;;;;;;;17.27;9.90;;;0.40;99.90;;;;;;5078685;28;20218;-78
2022/01/11 23:31:48;;;;;;;18.58;10.68;;;0.20;99.90;;;;;;5077535;28;20021;-78
2022/01/11 23:34:15;;;;;;;15.80;9.93;;;0.20;99.90;;;;;;5079874;28;20048;-79
2022/01/11 23:36:45;;;;;;;19.08;10.98;;;0.00;99.90;;;;;;5078435;28;20025;-79
2022/01/11 23:42:14;;;;;;;18.17;10.73;;;0.20;99.90;;;;;;5079683;28;20392;-78
2022/01/11 23:46:54;;;;;;;19.55;11.35;;;0.40;99.90;;;;;;5078344;28;20064;-78
2022/01/11 23:49:21;;;;;;;19.17;12.30;;;0.40;99.90;;;;;;5077363;28;20024;-78
2022/01/11 23:51:47;;;;;;;19.42;11.15;;;1.80;99.90;;;;;;5078006;28;20502;-78
2022/01/11 23:54:12;;;;;;;15.98;9.98;;;0.60;99.90;;;;;;5078058;28;20025;-79
2022/01/11 23:56:39;;;;;;;14.65;9.20;;;0.70;99.90;;;;;;5078215;28;20074;-78
2022/01/11 23:59:05;;;;;;;16.52;9.15;;;0.70;99.90;;;;;;5061248;28;20032;-78
